Flight Track Log - Related Links

Times and Time Zones

All times are in EST time to prevent confusion due to time zone crossing. See the RPA4273 flight status page for this flight to view local times or setup timezone preferences in your user account.

Time Position Orientation Groundspeed Altitude Reporting Facility
EST Latitude Longitude Course Direction KTS MPH feet Rate Location/Type
Fri 09:58:21 PM 41.9333 -87.9167 228° Southwest 140 161 2,700  Level Chicago TRACON
Fri 09:59:21 PM 41.9000 -87.9667 228° Southwest 193 222 4,100 2,406 Climbing Chicago TRACON
Fri 10:01:48 PM 41.8814 -88.1692 263° West 251 289 11,000 2,712 Climbing Chicago Center
Fri 10:02:49 PM 41.8864 -88.2725 274° West 258 297 13,500 2,066 Climbing Chicago Center
Fri 10:03:50 PM 41.8925 -88.3839 274° West 302 348 15,200 1,918 Climbing Chicago Center
Fri 10:04:51 PM 41.8983 -88.4994 274° West 310 357 17,400 2,098 Climbing Chicago Center
Fri 10:05:53 PM 41.9047 -88.6281 274° West 324 373 19,500 1,951 Climbing Chicago Center
Fri 10:06:54 PM 41.9103 -88.7500 274° West 328 377 21,400 1,770 Climbing Chicago Center
Fri 10:07:55 PM 41.9100 -88.8769 270° West 340 391 23,100 1,659 Climbing Chicago Center
Fri 10:08:57 PM 41.9067 -89.0058 268° West 346 398 24,800 1,512 Climbing Chicago Center
Fri 10:09:58 PM 41.9025 -89.1342 268° West 346 398 26,200 1,180 Climbing Chicago Center
Fri 10:10:59 PM 41.8944 -89.2697 265° West 364 419 27,200 829 Climbing Chicago Center
Fri 10:12:01 PM 41.8811 -89.4064 263° West 369 425 27,900 878 Climbing Chicago Center
Fri 10:13:02 PM 41.8664 -89.5458 262° West 378 435 29,000 1,328 Climbing Chicago Center
Fri 10:14:03 PM 41.8508 -89.7097 263° West 373 429 30,600 1,268 Climbing Chicago Center
Fri 10:15:05 PM 41.8369 -89.8453 262° West 370 426 31,600 878 Climbing Chicago Center
Fri 10:16:06 PM 41.8258 -89.9644 263° West 373 429 32,400 836 Climbing Chicago Center
Fri 10:17:07 PM 41.8117 -90.1000 262° West 369 425 33,300 738 Climbing Chicago Center
Fri 10:18:08 PM 41.7961 -90.2406 262° West 366 421 33,900 341 Climbing Chicago Center
Fri 10:19:10 PM 41.7806 -90.3792 261° West 375 432 34,000 49 Climbing Chicago Center
Fri 10:20:11 PM 41.7631 -90.5472 262° West 378 435 34,000  Level Chicago Center
Fri 10:21:12 PM 41.7486 -90.6808 262° West 382 440 34,000  Level Chicago Center
Fri 10:22:13 PM 41.7339 -90.8189 262° West 379 436 34,000  Level Chicago Center
Fri 10:23:15 PM 41.7167 -90.9600 261° West 381 438 34,000  Level Chicago Center
Fri 10:24:16 PM 41.7014 -91.0981 262° West 378 435 34,000  Level Chicago Center
Fri 10:25:17 PM 41.6858 -91.2331 261° West 371 427 34,000  Level Chicago Center
Fri 10:26:18 PM 41.6700 -91.3700 261° West 373 429 34,000  Level Chicago Center
Fri 10:27:20 PM 41.6503 -91.5314 261° West 370 426 34,000  Level Chicago Center
Fri 10:28:21 PM 41.6347 -91.6672 261° West 372 428 34,000  Level Chicago Center
Fri 10:29:22 PM 41.6208 -91.8019 262° West 369 425 34,000  Level Chicago Center
Fri 10:30:23 PM 41.6128 -91.9364 265° West 365 420 34,000  Level Chicago Center
Fri 10:31:25 PM 41.6050 -92.0717 266° West 365 420 34,000  Level Chicago Center
Fri 10:32:26 PM 41.5972 -92.2036 266° West 359 413 34,000  Level Chicago Center
Fri 10:33:27 PM 41.5889 -92.3331 265° West 355 409 34,000  Level Chicago Center
Fri 10:34:28 PM 41.5817 -92.4619 266° West 351 404 34,000  Level Chicago Center
Fri 10:35:44 PM 41.5697 -92.6342 265° West 355 409 34,000  Level Minneapolis Center
Fri 10:36:45 PM 41.5622 -92.7622 266° West 353 406 34,000  Level Minneapolis Center
Fri 10:37:46 PM 41.5536 -92.8903 265° West 353 406 34,000  Level Minneapolis Center
Fri 10:38:47 PM 41.5453 -93.0161 265° West 351 404 34,000  Level Minneapolis Center
Fri 10:39:48 PM 41.5369 -93.1442 265° West 349 402 34,000  Level Minneapolis Center
Fri 10:40:49 PM 41.5261 -93.2981 265° West 349 402 34,000  Level Minneapolis Center
Fri 10:41:51 PM 41.5169 -93.4256 265° West 349 402 34,000  Level Minneapolis Center
Fri 10:42:52 PM 41.5086 -93.5550 265° West 349 402 34,000  Level Minneapolis Center
Fri 10:43:53 PM 41.4978 -93.6858 264° West 352 405 34,000  Level Minneapolis Center
Fri 10:44:54 PM 41.4875 -93.8203 264° West 361 415 34,000  Level Minneapolis Center
Fri 10:45:55 PM 41.4781 -93.9528 265° West 362 417 34,000  Level Minneapolis Center
Fri 10:46:57 PM 41.4672 -94.0864 264° West 362 417 34,000  Level Minneapolis Center
Fri 10:47:58 PM 41.4578 -94.2278 265° West 362 417 34,000  Level Minneapolis Center
Fri 10:48:59 PM 41.4475 -94.3625 264° West 363 418 34,000  Level Minneapolis Center
Fri 10:50:00 PM 41.4367 -94.4964 264° West 363 418 34,000  Level Minneapolis Center
Fri 10:51:01 PM 41.4261 -94.6319 264° West 364 419 34,000  Level Minneapolis Center
Fri 10:52:02 PM 41.4128 -94.7944 264° West 368 423 34,000  Level Minneapolis Center
Fri 10:53:03 PM 41.4006 -94.9303 263° West 368 423 34,000  Level Minneapolis Center
Fri 10:54:05 PM 41.3883 -95.0658 263° West 368 423 34,000  Level Minneapolis Center
Fri 10:55:06 PM 41.3772 -95.2031 264° West 369 425 34,000  Level Minneapolis Center
Fri 10:56:07 PM 41.3647 -95.3400 263° West 370 426 34,000  Level Minneapolis Center
Fri 10:57:08 PM 41.3531 -95.4758 264° West 370 426 34,000  Level Minneapolis Center
Fri 10:58:09 PM 41.3403 -95.6125 263° West 370 426 34,000  Level Minneapolis Center
Fri 10:59:10 PM 41.3297 -95.7469 264° West 370 426 34,000  Level Minneapolis Center
Fri 11:00:11 PM 41.3175 -95.8833 263° West 369 425 34,000  Level Minneapolis Center
Fri 11:01:13 PM 41.3042 -96.0211 263° West 373 429 34,000  Level Minneapolis Center
Fri 11:02:14 PM 41.2908 -96.1564 263° West 372 428 34,000  Level Minneapolis Center
Fri 11:03:15 PM 41.2756 -96.3203 263° West 370 426 34,000  Level Minneapolis Center
Fri 11:04:16 PM 41.2642 -96.4400 263° West 370 426 34,000  Level Minneapolis Center
Fri 11:05:17 PM 41.2500 -96.5769 262° West 370 426 34,000  Level Minneapolis Center
Fri 11:06:19 PM 41.2361 -96.7114 262° West 370 426 34,000  Level Minneapolis Center
Fri 11:07:20 PM 41.2231 -96.8461 263° West 370 426 34,000  Level Minneapolis Center
Fri 11:08:21 PM 41.2094 -96.9808 262° West 369 425 34,000  Level Minneapolis Center
Fri 11:09:22 PM 41.1917 -97.1442 262° West 371 427 34,000  Level Minneapolis Center
Fri 11:10:23 PM 41.1786 -97.2803 263° West 370 426 34,000  Level Minneapolis Center
Fri 11:11:25 PM 41.1656 -97.4039 262° West 371 427 34,000  Level Minneapolis Center
Fri 11:12:26 PM 41.1508 -97.5397 262° West 370 426 34,000  Level Minneapolis Center
Fri 11:13:27 PM 41.1367 -97.6742 262° West 370 426 34,000  Level Minneapolis Center
Fri 11:14:28 PM 41.1214 -97.8089 261° West 370 426 34,000  Level Minneapolis Center
Fri 11:15:29 PM 41.1067 -97.9431 262° West 370 426 34,000  Level Minneapolis Center
Fri 11:16:30 PM 41.0894 -98.1061 262° West 370 426 34,000  Level Minneapolis Center
Fri 11:17:31 PM 41.0736 -98.2417 261° West 370 426 34,000  Level Minneapolis Center
Fri 11:18:32 PM 41.0583 -98.3792 262° West 371 427 34,000  Level Minneapolis Center
Fri 11:19:33 PM 41.0453 -98.4958 262° West 371 427 34,000  Level Minneapolis Center
Fri 11:20:34 PM 41.0303 -98.6308 262° West 371 427 34,000  Level Minneapolis Center
Fri 11:21:36 PM 41.0111 -98.7969 261° West 376 433 34,000  Level Minneapolis Center
Fri 11:22:37 PM 40.9953 -98.9361 261° West 378 435 34,000  Level Minneapolis Center
Fri 11:23:38 PM 40.9803 -99.0753 262° West 378 435 34,000  Level Minneapolis Center
Fri 11:24:39 PM 40.9639 -99.2169 261° West 379 436 34,000  Level Minneapolis Center
Fri 11:25:40 PM 40.9475 -99.3567 261° West 380 437 34,000  Level Minneapolis Center
Fri 11:26:41 PM 40.9311 -99.4964 261° West 380 437 34,000  Level Minneapolis Center
Fri 11:27:42 PM 40.9144 -99.6342 261° West 380 437 34,000  Level Minneapolis Center
Fri 11:28:43 PM 40.8983 -99.7728 261° West 380 437 34,000  Level Minneapolis Center
Fri 11:29:44 PM 40.8811 -99.9111 261° West 380 437 34,000  Level Minneapolis Center
Fri 11:30:45 PM 40.8653 -100.0447 261° West 372 428 34,000  Level Minneapolis Center
Fri 11:31:46 PM 40.8481 -100.1794 260° West 372 428 34,000  Level Minneapolis Center
Fri 11:32:47 PM 40.8311 -100.3161 261° West 372 428 34,000  Level Minneapolis Center
Fri 11:33:48 PM 40.8136 -100.4525 260° West 372 428 34,000  Level Minneapolis Center
Fri 11:34:49 PM 40.7969 -100.5889 261° West 372 428 34,000  Level Minneapolis Center
Fri 11:36:12 PM 40.7639 -100.7961 258° West 379 436 34,000  Level Denver Center
Fri 11:37:13 PM 40.7456 -100.9053 258° West 379 436 34,000  Level Denver Center
Fri 11:38:15 PM 40.7203 -101.0561 258° West 378 435 34,000  Level Denver Center
Fri 11:39:17 PM 40.6939 -101.2081 257° West 379 436 34,000  Level Denver Center
Fri 11:40:18 PM 40.6719 -101.3358 257° West 377 434 34,000  Level Denver Center
Fri 11:41:20 PM 40.6456 -101.4842 257° West 376 433 34,000  Level Denver Center
Fri 11:42:21 PM 40.6228 -101.6122 257° West 375 432 34,000  Level Denver Center
Fri 11:43:23 PM 40.5997 -101.7417 257° West 377 434 34,000  Level Denver Center
Fri 11:44:24 PM 40.5719 -101.8897 256° West 376 433 34,000  Level Denver Center
Fri 11:45:26 PM 40.5492 -102.0172 257° West 376 433 34,000  Level Denver Center
Fri 11:46:27 PM 40.5283 -102.1250 256° West 377 434 34,000  Level Denver Center
Fri 11:47:29 PM 40.4981 -102.2944 257° West 377 434 34,000  Level Denver Center
Fri 11:48:30 PM 40.4750 -102.4222 257° West 376 433 34,000  Level Denver Center
Fri 11:49:32 PM 40.4461 -102.5733 256° West 381 438 34,000  Level Denver Center
Fri 11:50:33 PM 40.4206 -102.7144 257° West 381 438 34,000  Level Denver Center
Fri 11:51:35 PM 40.3942 -102.8497 256° West 382 440 34,000 -293 Level Denver Center
Fri 11:52:36 PM 40.3694 -102.9839 256° West 382 440 33,400 -780 Descending Denver Center
Fri 11:53:38 PM 40.3450 -103.1136 256° West 373 429 32,400 -1,122 Descending Denver Center
Fri 11:54:39 PM 40.3189 -103.2406 255° West 364 419 31,100 -1,561 Descending Denver Center
Fri 11:55:41 PM 40.2950 -103.3719 257° West 370 426 29,200 -1,689 Descending Denver Center
Fri 11:56:54 PM 40.2694 -103.5006 255° West 369 425 27,300 -2,000 Descending Denver Center
Fri 11:57:56 PM 40.2353 -103.6753 256° West 360 414 24,700 -2,146 Descending Denver Center
Fri 11:58:57 PM 40.2108 -103.7936 255° West 343 395 22,900 -1,511 Descending Denver Center
Sat 12:00:11 AM 40.1794 -103.8950 248° West 310 357 21,300 -1,556 Descending Denver Center
Sat 12:01:12 AM 40.1258 -104.0136 239° Southwest 294 338 19,400 -1,659 Descending Denver Center
Sat 12:02:14 AM 40.0850 -104.0997 238° Southwest 281 323 17,900 -1,366 Descending Denver Center
Sat 12:03:15 AM 40.0467 -104.1858 240° Southwest 275 316 16,600 -1,122 Descending Denver Center
Sat 12:04:17 AM 40.0050 -104.2750 239° Southwest 271 312 15,600 -927 Descending Denver Center
Sat 12:05:18 AM 39.9675 -104.3553 239° Southwest 260 299 14,700 -909 Descending Denver Center
Sat 12:05:56 AM 39.9500 -104.4000 243° Southwest 264 304 14,100 -1,200 Descending Denver TRACON
Sat 12:06:58 AM 39.9000 -104.4833 232° Southwest 275 316 12,700 -1,421 Descending Denver TRACON
Sat 12:07:50 AM 39.8333 -104.5000 191° South 291 335 11,400 -1,214 Descending Denver TRACON
Sat 12:08:22 AM 39.7908 -104.5014 181° South 269 310 11,000 -968 Descending Denver Center
Sat 12:09:23 AM 39.7258 -104.5033 181° South 235 270 9,900 -1,073 Descending Denver Center
Sat 12:10:25 AM 39.6633 -104.5044 181° South 225 259 8,800 -927 Descending Denver Center
Sat 12:11:26 AM 39.6167 -104.5342 206° Southwest 215 247 8,000 -393 Descending Denver Center
Sat 12:12:27 AM 39.6536 -104.6033 305° West 223 257 8,000 -49 Level Denver Center
Sat 12:13:28 AM 39.7072 -104.6403 332° Northwest 223 257 7,900 -585 Descending Denver Center
Sat 12:14:30 AM 39.7597 -104.6600 344° North 206 237 6,800 -976 Descending Denver Center
Sat 12:15:31 AM 39.8094 -104.6614 359° North 181 208 5,900 -689 Descending Denver Center
Sat 12:16:32 AM 39.8458 -104.6592 North 124 143 5,400 -492 Descending Denver Center
Sat 12:18:00 AM 39.8500 -104.6667 North  Level FlightAware Approximate
Sat 12:25:00 AM 39.8617 -104.6732 North  Level Estimated
Sat 12:26:00 AM 39.8617 -104.6732 North  Level Estimated

Login

Don't have an account? Register now (free) for customized features, flight alerts, and more!